createdAt,value
2024-01-14T00:02:40.502Z,99285.25
2024-01-14T00:05:43.408Z,99280.91
2024-01-14T00:08:46.486Z,99277.38
2024-01-14T00:11:50.454Z,99280.91
2024-01-14T00:14:53.391Z,99260.91
2024-01-14T00:17:56.147Z,99256.53
2024-01-14T00:20:59.214Z,99250.44
2024-01-14T00:24:01.868Z,99244.28
2024-01-14T00:27:05.140Z,99238.19
2024-01-14T00:30:08.467Z,99234.75
2024-01-14T00:33:12.653Z,99233.97
2024-01-14T00:36:15.292Z,99230.44
2024-01-14T00:39:18.292Z,99221.66
2024-01-14T00:42:21.015Z,99226.91
2024-01-14T00:45:23.778Z,99211.97
2024-01-14T00:48:26.323Z,99206.78
2024-01-14T00:51:29.456Z,99207.66
2024-01-14T00:54:32.272Z,99208.53
2024-01-14T00:57:35.360Z,99198.88
2024-01-14T01:00:38.166Z,99193.75
2024-01-14T01:03:41.172Z,99187.59
2024-01-14T01:06:43.919Z,99172.78
2024-01-14T01:09:46.802Z,99178.88
2024-01-14T01:12:49.314Z,99168.50
2024-01-14T01:15:52.181Z,99158.94
2024-01-14T01:18:54.655Z,99150.25
2024-01-14T01:21:57.516Z,99146.75
2024-01-14T01:25:00.067Z,99152.97
2024-01-14T01:28:03.341Z,99153.88
2024-01-14T01:31:05.922Z,99145.13
2024-01-14T01:34:11.266Z,99147.78
2024-01-14T01:37:13.796Z,99145.22
2024-01-14T01:40:16.590Z,99127.72
2024-01-14T01:43:18.977Z,99128.53
2024-01-14T01:46:22.215Z,99126.03
2024-01-14T01:49:25.108Z,99112.09
2024-01-14T01:52:28.175Z,99108.72
2024-01-14T01:55:30.677Z,99099.03
2024-01-14T01:58:33.631Z,99104.22
2024-01-14T02:01:36.089Z,99093.75
2024-01-14T02:04:39.337Z,99096.38
2024-01-14T02:07:41.841Z,99091.13
2024-01-14T02:10:44.816Z,99080.63
2024-01-14T02:13:47.747Z,99085.91
2024-01-14T02:16:50.543Z,99079.75
2024-01-14T02:19:53.042Z,99086.78
2024-01-14T02:22:56.906Z,99078.97
2024-01-14T02:25:59.416Z,99069.38
2024-01-14T02:29:04.595Z,99072.91
2024-01-14T02:32:06.909Z,99065.97
2024-01-14T02:35:10.006Z,99068.56
2024-01-14T02:38:12.488Z,99059.94
2024-01-14T02:41:15.799Z,99063.34
2024-01-14T02:44:18.180Z,99055.53
2024-01-14T02:47:21.022Z,99047.72
2024-01-14T02:50:23.701Z,99042.41
2024-01-14T02:53:26.391Z,99042.44
2024-01-14T02:56:28.796Z,99044.31
2024-01-14T02:59:34.273Z,99043.38
2024-01-14T03:02:37.665Z,99040.81
2024-01-14T03:05:40.343Z,99039.03
2024-01-14T03:08:42.905Z,99032.09
2024-01-14T03:11:45.668Z,99023.31
2024-01-14T03:14:48.516Z,99019.88
2024-01-14T03:17:51.488Z,99012.91
2024-01-14T03:20:54.117Z,99004.13
2024-01-14T03:23:57.078Z,99008.53
2024-01-14T03:26:59.887Z,99004.19
2024-01-14T03:30:04.021Z,98994.50
2024-01-14T03:33:07.138Z,98992.91
2024-01-14T03:36:14.601Z,98990.25
2024-01-14T03:39:17.077Z,98993.72
2024-01-14T03:42:19.904Z,98984.13
2024-01-14T03:45:22.504Z,98992.00
2024-01-14T03:48:25.538Z,98985.00
2024-01-14T03:51:28.314Z,98986.72
2024-01-14T03:54:31.367Z,98983.22
2024-01-14T03:57:33.851Z,98981.50
2024-01-14T04:00:36.951Z,98985.84
2024-01-14T04:03:39.645Z,98982.38
2024-01-14T04:06:42.683Z,98978.91
2024-01-14T04:09:45.359Z,98993.69
2024-01-14T04:12:48.406Z,98983.25
2024-01-14T04:15:50.898Z,98962.25
2024-01-14T04:18:53.876Z,98978.00
2024-01-14T04:21:56.402Z,98973.66
2024-01-14T04:24:59.247Z,98978.81
2024-01-14T04:28:03.317Z,98968.31
2024-01-14T04:31:06.289Z,98963.94
2024-01-14T04:34:10.592Z,98956.13
2024-01-14T04:37:13.686Z,98966.66
2024-01-14T04:40:16.570Z,98963.16
2024-01-14T04:43:19.394Z,98962.28
2024-01-14T04:46:22.012Z,98954.41
2024-01-14T04:49:25.204Z,98957.00
2024-01-14T04:52:27.943Z,98957.00
2024-01-14T04:55:30.797Z,98956.19
2024-01-14T04:58:33.258Z,98953.59
2024-01-14T05:01:36.082Z,98949.28
2024-01-14T05:04:38.730Z,98945.69
2024-01-14T05:07:41.759Z,98950.94
2024-01-14T05:10:44.626Z,98951.81
2024-01-14T05:13:47.798Z,98946.56
2024-01-14T05:16:50.328Z,98943.13
2024-01-14T05:19:53.430Z,98936.94
2024-01-14T05:22:55.834Z,98938.66
2024-01-14T05:25:58.929Z,98941.25
2024-01-14T05:29:01.696Z,98931.69
2024-01-14T05:32:04.821Z,98946.47
2024-01-14T05:35:07.560Z,98941.28
2024-01-14T05:38:10.435Z,98929.97
2024-01-14T05:41:15.917Z,98936.97
2024-01-14T05:44:18.887Z,98936.88
2024-01-14T05:47:21.530Z,98941.28
2024-01-14T05:50:24.386Z,98940.44
2024-01-14T05:53:26.968Z,98937.81
2024-01-14T05:56:29.752Z,98935.19
2024-01-14T05:59:32.557Z,98926.47
2024-01-14T06:02:35.576Z,98936.03
2024-01-14T06:05:38.321Z,98924.72
2024-01-14T06:08:43.987Z,98930.81
2024-01-14T06:11:46.625Z,98937.75
2024-01-14T06:14:49.649Z,98928.88
2024-01-14T06:17:52.351Z,98925.44
2024-01-14T06:20:57.469Z,98927.19
2024-01-14T06:23:59.968Z,98927.13
2024-01-14T06:27:04.021Z,98923.69
2024-01-14T06:30:07.067Z,98928.06
2024-01-14T06:33:10.965Z,98921.97
2024-01-14T06:36:14.201Z,98927.19
2024-01-14T06:39:17.038Z,98928.94
2024-01-14T06:42:19.771Z,98920.97
2024-01-14T06:45:22.645Z,98928.81
2024-01-14T06:48:25.903Z,98916.72
2024-01-14T06:51:29.375Z,98919.22
2024-01-14T06:54:32.069Z,98909.66
2024-01-14T06:57:35.153Z,98922.72
2024-01-14T07:00:37.910Z,98940.22
2024-01-14T07:03:41.094Z,98926.28
2024-01-14T07:06:43.926Z,98942.00
2024-01-14T07:09:47.020Z,98930.66
2024-01-14T07:12:49.668Z,98931.53
2024-01-14T07:15:52.784Z,98934.09
2024-01-14T07:18:55.656Z,98930.59
2024-01-14T07:21:58.704Z,98935.84
2024-01-14T07:25:01.268Z,98930.66
2024-01-14T07:28:04.381Z,98947.25
2024-01-14T07:31:07.092Z,98934.13
2024-01-14T07:34:12.265Z,98942.81
2024-01-14T07:37:15.180Z,98946.41
2024-01-14T07:40:18.024Z,98942.88
2024-01-14T07:43:20.740Z,98944.59
2024-01-14T07:46:23.524Z,98937.69
2024-01-14T07:49:26.085Z,98943.75
2024-01-14T07:52:29.169Z,98943.72
2024-01-14T07:55:31.938Z,98937.63
2024-01-14T07:58:34.723Z,98944.56
2024-01-14T08:01:37.284Z,98944.59
2024-01-14T08:04:40.263Z,98940.19
2024-01-14T08:07:42.805Z,98949.81
2024-01-14T08:10:45.927Z,98941.19
2024-01-14T08:13:48.659Z,98949.09
2024-01-14T08:16:51.480Z,98950.91
2024-01-14T08:19:54.221Z,98942.13
2024-01-14T08:22:57.079Z,98949.94
2024-01-14T08:25:59.475Z,98947.31
2024-01-14T08:29:10.414Z,98948.16
2024-01-14T08:32:17.030Z,98951.69
2024-01-14T08:35:20.153Z,98956.06
2024-01-14T08:38:23.343Z,98955.25
2024-01-14T08:41:27.689Z,98963.97
2024-01-14T08:44:30.647Z,98966.63
2024-01-14T08:47:33.622Z,98970.13
2024-01-14T08:50:36.180Z,98957.03
2024-01-14T08:53:39.254Z,98970.16
2024-01-14T08:56:41.748Z,98959.72
2024-01-14T08:59:44.534Z,98964.97
2024-01-14T09:02:46.974Z,98969.38
2024-01-14T09:05:50.071Z,98970.22
2024-01-14T09:08:52.964Z,98964.19
2024-01-14T09:11:56.412Z,98968.53
2024-01-14T09:14:58.906Z,98976.38
2024-01-14T09:18:02.143Z,98977.25
2024-01-14T09:21:05.421Z,98978.91
2024-01-14T09:24:08.554Z,98977.19
2024-01-14T09:27:11.848Z,98978.13
2024-01-14T09:30:15.396Z,98980.75
2024-01-14T09:33:18.929Z,98977.22
2024-01-14T09:36:21.873Z,98983.28
2024-01-14T09:39:24.701Z,98991.13
2024-01-14T09:42:37.084Z,98987.69
2024-01-14T09:45:47.059Z,98991.19
2024-01-14T09:48:53.652Z,98996.38
2024-01-14T09:51:57.250Z,99006.81
2024-01-14T09:55:00.665Z,99001.59
2024-01-14T09:58:03.890Z,98999.81
2024-01-14T10:01:10.248Z,98997.16
2024-01-14T10:04:14.878Z,98998.91
2024-01-14T10:07:18.699Z,98988.41
2024-01-14T10:10:21.583Z,98984.91
2024-01-14T10:13:24.541Z,98998.97
2024-01-14T10:16:51.058Z,98997.25
2024-01-14T10:19:57.304Z,99003.28
2024-01-14T10:23:00.242Z,98988.44
2024-01-14T10:26:03.280Z,98989.38
2024-01-14T10:29:06.045Z,98992.94
2024-01-14T10:32:09.837Z,98987.72
2024-01-14T10:35:15.908Z,98986.88
2024-01-14T10:38:23.167Z,98979.91
2024-01-14T10:41:26.062Z,98979.88
2024-01-14T10:44:29.768Z,98980.75
2024-01-14T10:47:35.919Z,98982.50
2024-01-14T10:50:45.496Z,98971.94
2024-01-14T10:54:06.797Z,98972.84
2024-01-14T10:57:34.125Z,98973.69
2024-01-14T11:00:38.116Z,98971.09
2024-01-14T11:03:41.797Z,98969.41
2024-01-14T11:06:47.156Z,98962.41
2024-01-14T11:09:52.877Z,98975.44
2024-01-14T11:13:11.099Z,98972.84
2024-01-14T11:16:23.104Z,98960.66
2024-01-14T11:19:33.766Z,98956.31
2024-01-14T11:22:45.427Z,98965.06
2024-01-14T11:25:56.583Z,98952.88
2024-01-14T11:29:02.281Z,98960.78
2024-01-14T11:32:04.766Z,98961.69
2024-01-14T11:35:08.726Z,98956.44
2024-01-14T11:38:37.665Z,98950.31
2024-01-14T11:41:44.690Z,98954.66
2024-01-14T11:44:47.173Z,98962.50
2024-01-14T11:47:55.018Z,98961.63
2024-01-14T11:50:57.743Z,98959.00
2024-01-14T11:54:10.786Z,98965.13
2024-01-14T11:57:29.470Z,98969.53
2024-01-14T12:00:37.107Z,98982.63
2024-01-14T12:03:40.428Z,98968.63
2024-01-14T12:06:47.835Z,98969.50
2024-01-14T12:09:57.117Z,98976.53
2024-01-14T12:13:04.237Z,98973.88
2024-01-14T12:16:10.417Z,98972.13
2024-01-14T12:19:14.970Z,98972.97
2024-01-14T12:22:17.832Z,98968.66
2024-01-14T12:25:25.762Z,98971.31
2024-01-14T12:28:29.665Z,98952.97
2024-01-14T12:31:46.107Z,98979.16
2024-01-14T12:34:56.201Z,98987.91
2024-01-14T12:37:58.798Z,98988.78
2024-01-14T12:41:01.860Z,98989.66
2024-01-14T12:44:04.395Z,98980.91
2024-01-14T12:47:08.266Z,98978.28
2024-01-14T12:50:17.037Z,98980.09
2024-01-14T12:53:21.181Z,98978.34
2024-01-14T12:56:25.421Z,98981.84
2024-01-14T12:59:28.522Z,98979.22
2024-01-14T13:02:35.018Z,98965.22
2024-01-14T13:05:39.236Z,98978.34
2024-01-14T13:08:41.930Z,98974.81
2024-01-14T13:11:45.100Z,98980.94
2024-01-14T13:14:48.332Z,98966.94
2024-01-14T13:17:53.510Z,98964.41
2024-01-14T13:20:57.053Z,98973.09
2024-01-14T13:24:09.294Z,98980.94
2024-01-14T13:27:15.814Z,98979.22
2024-01-14T13:30:19.851Z,98980.03
2024-01-14T13:33:22.420Z,98981.81
2024-01-14T13:36:25.381Z,98979.16
2024-01-14T13:39:28.351Z,98986.97
2024-01-14T13:42:31.732Z,98987.00
2024-01-14T13:45:34.593Z,98976.53
2024-01-14T13:48:37.610Z,98980.06
2024-01-14T13:51:40.980Z,98975.72
2024-01-14T13:54:44.890Z,98980.03
2024-01-14T13:57:49.750Z,98972.13
2024-01-14T14:00:53.198Z,98985.22
2024-01-14T14:03:55.781Z,98993.06
2024-01-14T14:06:59.697Z,98986.97
2024-01-14T14:10:02.629Z,98986.97
2024-01-14T14:13:05.858Z,98988.66
2024-01-14T14:16:11.620Z,99000.06
2024-01-14T14:19:19.242Z,98996.56
2024-01-14T14:22:22.106Z,99002.66
2024-01-14T14:25:25.085Z,99004.38
2024-01-14T14:28:27.819Z,98988.66
2024-01-14T14:31:43.535Z,98997.47
2024-01-14T14:34:51.616Z,98986.06
2024-01-14T14:37:54.599Z,98987.84
2024-01-14T14:40:57.440Z,98988.66
2024-01-14T14:44:01.196Z,98997.50
2024-01-14T14:47:04.981Z,98985.22
2024-01-14T14:50:08.397Z,98997.41
2024-01-14T14:53:11.509Z,98987.84
2024-01-14T14:56:14.660Z,98989.56
2024-01-14T14:59:19.796Z,98980.00
2024-01-14T15:02:24.656Z,98988.72
2024-01-14T15:05:27.159Z,98981.72
2024-01-14T15:08:30.086Z,98987.84
2024-01-14T15:11:37.948Z,98992.19
2024-01-14T15:14:42.421Z,98997.41
2024-01-14T15:17:45.689Z,98984.31
2024-01-14T15:20:52.100Z,98987.81
2024-01-14T15:23:55.179Z,98995.69
2024-01-14T15:26:58.490Z,98986.94
2024-01-14T15:30:01.276Z,98990.47
2024-01-14T15:33:06.501Z,98987.00
2024-01-14T15:36:10.139Z,98979.16
2024-01-14T15:39:15.440Z,98993.13
2024-01-14T15:42:22.775Z,98983.50
2024-01-14T15:45:26.615Z,98985.25
2024-01-14T15:48:30.852Z,98980.97
2024-01-14T15:51:34.876Z,98979.16
2024-01-14T15:54:37.965Z,98980.88
2024-01-14T15:57:44.093Z,98982.63
2024-01-14T16:01:00.123Z,98981.78
2024-01-14T16:04:11.624Z,98987.00
2024-01-14T16:07:14.920Z,98998.34
2024-01-14T16:10:19.131Z,98987.88
2024-01-14T16:13:21.925Z,98987.88
2024-01-14T16:16:27.048Z,98985.19
2024-01-14T16:19:31.648Z,98980.00
2024-01-14T16:22:36.615Z,98988.66
2024-01-14T16:25:39.828Z,98983.50
2024-01-14T16:28:43.072Z,98978.19
2024-01-14T16:31:45.753Z,98993.88
2024-01-14T16:34:50.014Z,98992.13
2024-01-14T16:37:56.113Z,98990.38
2024-01-14T16:41:04.834Z,98981.69
2024-01-14T16:44:25.716Z,98986.00
2024-01-14T16:47:30.432Z,98983.41
2024-01-14T16:50:35.119Z,98982.50
2024-01-14T16:53:39.391Z,98978.13
2024-01-14T16:56:42.230Z,98985.94
2024-01-14T16:59:45.245Z,98978.13
2024-01-14T17:02:48.065Z,98962.31
2024-01-14T17:05:51.036Z,98972.84
2024-01-14T17:08:53.497Z,98968.47
2024-01-14T17:11:58.822Z,98971.06
2024-01-14T17:15:01.814Z,98959.75
2024-01-14T17:18:08.230Z,98953.63
2024-01-14T17:21:11.164Z,98944.03
2024-01-14T17:24:14.301Z,98951.81
2024-01-14T17:27:17.782Z,98937.91
2024-01-14T17:30:20.978Z,98941.34
2024-01-14T17:33:23.930Z,98930.88
2024-01-14T17:36:35.064Z,98940.50
2024-01-14T17:39:39.261Z,98948.38
2024-01-14T17:42:42.677Z,98932.75
2024-01-14T17:45:58.385Z,98930.06
2024-01-14T17:49:14.228Z,98927.44
2024-01-14T17:52:17.447Z,98930.91
2024-01-14T17:55:20.957Z,98929.19
2024-01-14T17:58:24.458Z,98928.31
2024-01-14T18:01:28.080Z,98925.66
2024-01-14T18:04:31.412Z,98929.22
2024-01-14T18:07:34.600Z,98929.22
2024-01-14T18:10:42.043Z,98917.00
2024-01-14T18:13:45.435Z,98919.59
2024-01-14T18:16:48.574Z,98918.75
2024-01-14T18:19:52.089Z,98910.88
2024-01-14T18:23:06.072Z,98911.75
2024-01-14T18:26:15.062Z,98910.94
2024-01-14T18:29:19.856Z,98908.31
2024-01-14T18:32:23.477Z,98910.91
2024-01-14T18:35:26.541Z,98905.72
2024-01-14T18:38:29.955Z,98898.69
2024-01-14T18:41:33.024Z,98896.88
2024-01-14T18:44:35.934Z,98890.81
2024-01-14T18:47:39.515Z,98889.94
2024-01-14T18:50:43.526Z,98884.72
2024-01-14T18:53:46.483Z,98886.47
2024-01-14T18:56:52.205Z,98886.44
2024-01-14T18:59:55.675Z,98871.63
2024-01-14T19:03:03.266Z,98876.81
2024-01-14T19:06:11.516Z,98867.22
2024-01-14T19:09:15.938Z,98870.72
2024-01-14T19:12:21.348Z,98864.59
2024-01-14T19:15:24.960Z,98862.94
2024-01-14T19:18:28.644Z,98852.38
2024-01-14T19:21:35.172Z,98855.94
2024-01-14T19:24:43.457Z,98859.38
2024-01-14T19:27:47.818Z,98865.47
2024-01-14T19:30:51.462Z,98863.72
2024-01-14T19:33:55.287Z,98848.91
2024-01-14T19:36:58.737Z,98856.75
2024-01-14T19:40:02.676Z,98857.59
2024-01-14T19:43:05.651Z,98853.22
2024-01-14T19:46:09.466Z,98850.53
2024-01-14T19:49:13.193Z,98832.25
2024-01-14T19:52:17.561Z,98835.72
2024-01-14T19:55:21.393Z,98838.31
2024-01-14T19:58:25.502Z,98826.13
2024-01-14T20:01:28.291Z,98826.09
2024-01-14T20:04:34.134Z,98825.22
2024-01-14T20:07:37.558Z,98819.94
2024-01-14T20:10:41.217Z,98806.91
2024-01-14T20:13:44.084Z,98812.19
2024-01-14T20:16:51.500Z,98809.56
2024-01-14T20:19:55.535Z,98804.31
2024-01-14T20:22:59.823Z,98806.03
2024-01-14T20:26:03.836Z,98804.34
2024-01-14T20:29:09.509Z,98799.97
2024-01-14T20:32:12.725Z,98799.97
2024-01-14T20:35:16.473Z,98797.38
2024-01-14T20:38:20.469Z,98793.84
2024-01-14T20:41:25.007Z,98792.06
2024-01-14T20:44:28.225Z,98778.19
2024-01-14T20:47:31.512Z,98780.84
2024-01-14T20:50:34.964Z,98779.09
2024-01-14T20:53:38.712Z,98776.50
2024-01-14T20:56:41.466Z,98772.97
2024-01-14T20:59:51.242Z,98775.59
2024-01-14T21:02:53.988Z,98779.09
2024-01-14T21:05:57.231Z,98767.72
2024-01-14T21:08:59.813Z,98761.63
2024-01-14T21:12:02.804Z,98759.88
2024-01-14T21:15:07.695Z,98755.50
2024-01-14T21:18:11.050Z,98758.97
2024-01-14T21:21:14.290Z,98762.47
2024-01-14T21:24:19.090Z,98749.38
2024-01-14T21:27:22.115Z,98748.50
2024-01-14T21:30:25.868Z,98751.97
2024-01-14T21:33:29.597Z,98749.41
2024-01-14T21:36:32.631Z,98752.88
2024-01-14T21:39:35.643Z,98740.66
2024-01-14T21:42:38.788Z,98732.81
2024-01-14T21:45:41.436Z,98735.44
2024-01-14T21:48:44.543Z,98720.56
2024-01-14T21:51:47.207Z,98729.31
2024-01-14T21:54:50.433Z,98730.22
2024-01-14T21:57:53.125Z,98726.72
2024-01-14T22:00:56.559Z,98724.09
2024-01-14T22:03:59.332Z,98720.63
2024-01-14T22:07:02.890Z,98725.84
2024-01-14T22:10:05.650Z,98719.75
2024-01-14T22:13:08.548Z,98717.13
2024-01-14T22:16:11.181Z,98719.78
2024-01-14T22:19:14.377Z,98708.47
2024-01-14T22:22:17.215Z,98707.53
2024-01-14T22:25:20.139Z,98702.28
2024-01-14T22:28:24.395Z,98697.97
2024-01-14T22:31:27.506Z,98695.34
2024-01-14T22:34:30.291Z,98701.47
2024-01-14T22:37:33.420Z,98690.97
2024-01-14T22:40:36.045Z,98688.38
2024-01-14T22:43:40.426Z,98690.09
2024-01-14T22:46:42.938Z,98688.38
2024-01-14T22:49:48.886Z,98685.75
2024-01-14T22:52:51.634Z,98685.72
2024-01-14T22:55:54.434Z,98679.59
2024-01-14T22:58:57.013Z,98674.38
2024-01-14T23:02:00.340Z,98671.75
2024-01-14T23:05:02.939Z,98674.38
2024-01-14T23:08:06.603Z,98668.25
2024-01-14T23:11:09.099Z,98663.88
2024-01-14T23:14:11.871Z,98653.38
2024-01-14T23:17:14.326Z,98653.41
2024-01-14T23:20:17.061Z,98651.66
2024-01-14T23:23:19.687Z,98644.66
2024-01-14T23:26:22.518Z,98642.91
2024-01-14T23:29:24.990Z,98636.81
2024-01-14T23:32:28.061Z,98625.44
2024-01-14T23:35:30.514Z,98622.81
2024-01-14T23:38:33.551Z,98617.59
2024-01-14T23:41:36.093Z,98606.25
2024-01-14T23:44:39.672Z,98602.75
2024-01-14T23:47:42.232Z,98594.88
2024-01-14T23:50:45.171Z,98593.13
2024-01-14T23:53:47.831Z,98592.25
2024-01-14T23:56:50.807Z,98576.56
2024-01-14T23:59:53.328Z,98581.81
